createdAt,value
2019-02-05T00:00:06.022Z,-0.81
2019-02-05T00:01:06.021Z,-0.88
2019-02-05T00:02:05.128Z,-0.88
2019-02-05T00:03:05.159Z,-0.88
2019-02-05T00:04:05.130Z,-0.88
2019-02-05T00:05:05.615Z,-0.88
2019-02-05T00:06:05.851Z,-0.88
2019-02-05T00:07:05.037Z,-0.88
2019-02-05T00:08:05.279Z,-0.94
2019-02-05T00:09:05.783Z,-0.94
2019-02-05T00:10:05.365Z,-0.94
2019-02-05T00:11:05.376Z,-0.94
2019-02-05T00:12:06.177Z,-0.94
2019-02-05T00:13:05.034Z,-1.00
2019-02-05T00:14:05.767Z,-0.94
2019-02-05T00:15:05.071Z,-1.00
2019-02-05T00:16:05.514Z,-1.00
2019-02-05T00:17:05.134Z,-1.00
2019-02-05T00:18:05.513Z,-1.00
2019-02-05T00:19:05.308Z,-1.00
2019-02-05T00:20:05.371Z,-1.00
2019-02-05T00:21:05.380Z,-1.00
2019-02-05T00:22:05.123Z,-1.00
2019-02-05T00:23:06.011Z,-1.00
2019-02-05T00:24:05.219Z,-1.00
2019-02-05T00:25:05.475Z,-1.00
2019-02-05T00:26:06.033Z,-1.06
2019-02-05T00:27:05.085Z,-1.06
2019-02-05T00:28:05.134Z,-1.06
2019-02-05T00:29:05.220Z,-1.06
2019-02-05T00:30:05.046Z,-1.06
2019-02-05T00:31:05.231Z,-1.06
2019-02-05T00:32:05.208Z,-1.12
2019-02-05T00:33:05.317Z,-1.12
2019-02-05T00:34:05.762Z,-1.12
2019-02-05T00:35:05.142Z,-1.12
2019-02-05T00:36:05.469Z,-1.12
2019-02-05T00:37:05.641Z,-1.12
2019-02-05T00:38:06.566Z,-1.12
2019-02-05T00:39:05.714Z,-1.12
2019-02-05T00:40:05.770Z,-1.12
2019-02-05T00:41:05.894Z,-1.19
2019-02-05T00:42:05.833Z,-1.19
2019-02-05T00:43:06.116Z,-1.19
2019-02-05T00:44:05.143Z,-1.19
2019-02-05T00:45:05.893Z,-1.19
2019-02-05T00:46:05.915Z,-1.19
2019-02-05T00:47:06.122Z,-1.19
2019-02-05T00:48:06.028Z,-1.19
2019-02-05T00:49:05.352Z,-1.25
2019-02-05T00:50:05.763Z,-1.25
2019-02-05T00:51:05.389Z,-1.25
2019-02-05T00:52:05.535Z,-1.25
2019-02-05T00:53:05.073Z,-1.25
2019-02-05T00:54:05.615Z,-1.25
2019-02-05T00:55:05.055Z,-1.31
2019-02-05T00:56:05.429Z,-1.31
2019-02-05T00:57:05.152Z,-1.31
2019-02-05T00:58:05.692Z,-1.31
2019-02-05T00:59:05.967Z,-1.38
2019-02-05T01:00:05.936Z,-1.38
2019-02-05T01:01:05.603Z,-1.38
2019-02-05T01:02:06.017Z,-1.38
2019-02-05T01:03:06.021Z,-1.44
2019-02-05T01:04:05.461Z,-1.44
2019-02-05T01:05:05.856Z,-1.44
2019-02-05T01:06:05.551Z,-1.50
2019-02-05T01:07:05.706Z,-1.50
2019-02-05T01:08:05.123Z,-1.50
2019-02-05T01:09:05.215Z,-1.50
2019-02-05T01:10:05.834Z,-1.56
2019-02-05T01:11:05.955Z,-1.56
2019-02-05T01:12:06.017Z,-1.62
2019-02-05T01:13:05.067Z,-1.62
2019-02-05T01:14:05.848Z,-1.62
2019-02-05T01:15:05.239Z,-1.69
2019-02-05T01:16:05.358Z,-1.69
2019-02-05T01:17:05.380Z,-1.69
2019-02-05T01:18:05.931Z,-1.69
2019-02-05T01:19:06.127Z,-1.69
2019-02-05T01:20:06.101Z,-1.69
2019-02-05T01:21:05.218Z,-1.69
2019-02-05T01:22:05.538Z,-1.69
2019-02-05T01:23:05.533Z,-1.75
2019-02-05T01:24:05.210Z,-1.75
2019-02-05T01:25:05.495Z,-1.81
2019-02-05T01:26:05.377Z,-1.81
2019-02-05T01:27:05.468Z,-1.81
2019-02-05T01:28:05.468Z,-1.81
2019-02-05T01:29:06.031Z,-1.81
2019-02-05T01:30:05.461Z,-1.88
2019-02-05T01:31:05.622Z,-1.88
2019-02-05T01:32:05.137Z,-1.88
2019-02-05T01:33:05.143Z,-1.88
2019-02-05T01:34:05.358Z,-1.94
2019-02-05T01:35:05.459Z,-1.94
2019-02-05T01:36:05.939Z,-1.94
2019-02-05T01:37:05.145Z,-1.94
2019-02-05T01:38:05.553Z,-1.94
2019-02-05T01:39:06.181Z,-1.94
2019-02-05T01:40:05.788Z,-2.00
2019-02-05T01:41:05.940Z,-2.00
2019-02-05T01:42:05.143Z,-2.00
2019-02-05T01:43:05.056Z,-2.00
2019-02-05T01:44:05.304Z,-2.00
2019-02-05T01:45:06.256Z,-2.00
2019-02-05T01:46:05.527Z,-2.00
2019-02-05T01:47:05.605Z,-2.00
2019-02-05T01:48:05.522Z,-2.00
2019-02-05T01:49:05.459Z,-2.00
2019-02-05T01:50:05.918Z,-2.00
2019-02-05T01:51:05.646Z,-2.00
2019-02-05T01:52:05.694Z,-2.00
2019-02-05T01:53:05.803Z,-2.00
2019-02-05T01:54:05.590Z,-2.00
2019-02-05T01:55:05.714Z,-2.00
2019-02-05T01:56:05.702Z,-2.00
2019-02-05T01:57:05.704Z,-2.00
2019-02-05T01:58:05.224Z,-2.00
2019-02-05T01:59:05.229Z,-2.00
2019-02-05T02:00:05.375Z,-2.00
2019-02-05T02:01:05.547Z,-2.00
2019-02-05T02:02:05.947Z,-2.00
2019-02-05T02:03:05.458Z,-2.00
2019-02-05T02:04:05.610Z,-2.00
2019-02-05T02:05:05.153Z,-2.00
2019-02-05T02:06:05.306Z,-2.00
2019-02-05T02:07:05.209Z,-2.00
2019-02-05T02:08:05.544Z,-2.00
2019-02-05T02:09:05.626Z,-2.00
2019-02-05T02:10:05.164Z,-2.00
2019-02-05T02:11:05.143Z,-2.00
2019-02-05T02:12:05.208Z,-2.00
2019-02-05T02:13:05.384Z,-2.00
2019-02-05T02:14:05.786Z,-2.00
2019-02-05T02:15:05.217Z,-2.00
2019-02-05T02:16:05.693Z,-2.00
2019-02-05T02:17:05.866Z,-2.00
2019-02-05T02:18:05.852Z,-2.00
2019-02-05T02:19:06.115Z,-2.00
2019-02-05T02:20:05.127Z,-2.00
2019-02-05T02:21:05.228Z,-2.00
2019-02-05T02:22:05.462Z,-2.00
2019-02-05T02:23:05.651Z,-2.00
2019-02-05T02:24:05.533Z,-2.00
2019-02-05T02:25:05.903Z,-2.00
2019-02-05T02:26:05.532Z,-2.00
2019-02-05T02:27:05.623Z,-2.00
2019-02-05T02:28:05.047Z,-2.00
2019-02-05T02:29:05.245Z,-2.00
2019-02-05T02:30:05.355Z,-2.06
2019-02-05T02:31:05.376Z,-2.06
2019-02-05T02:32:06.090Z,-2.06
2019-02-05T02:33:06.021Z,-2.06
2019-02-05T02:34:05.694Z,-2.06
2019-02-05T02:35:05.227Z,-2.06
2019-02-05T02:36:05.610Z,-2.06
2019-02-05T02:37:05.880Z,-2.06
2019-02-05T02:38:05.766Z,-2.06
2019-02-05T02:39:05.767Z,-2.06
2019-02-05T02:40:05.920Z,-2.06
2019-02-05T02:41:06.024Z,-2.06
2019-02-05T02:42:05.052Z,-2.12
2019-02-05T02:43:05.148Z,-2.12
2019-02-05T02:44:05.216Z,-2.12
2019-02-05T02:45:05.147Z,-2.12
2019-02-05T02:46:05.713Z,-2.12
2019-02-05T02:47:05.621Z,-2.12
2019-02-05T02:48:05.239Z,-2.12
2019-02-05T02:49:05.543Z,-2.12
2019-02-05T02:50:05.957Z,-2.12
2019-02-05T02:51:05.071Z,-2.19
2019-02-05T02:52:05.460Z,-2.12
2019-02-05T02:53:05.645Z,-2.19
2019-02-05T02:54:05.600Z,-2.19
2019-02-05T02:55:05.791Z,-2.12
2019-02-05T02:56:05.387Z,-2.19
2019-02-05T02:57:05.930Z,-2.19
2019-02-05T02:58:05.153Z,-2.19
2019-02-05T02:59:05.217Z,-2.19
2019-02-05T03:00:05.540Z,-2.19
2019-02-05T03:01:05.653Z,-2.19
2019-02-05T03:02:05.624Z,-2.19
2019-02-05T03:03:05.228Z,-2.19
2019-02-05T03:04:05.729Z,-2.19
2019-02-05T03:05:05.145Z,-2.19
2019-02-05T03:06:05.788Z,-2.19
2019-02-05T03:07:06.025Z,-2.25
2019-02-05T03:08:05.224Z,-2.25
2019-02-05T03:09:05.413Z,-2.25
2019-02-05T03:10:05.316Z,-2.25
2019-02-05T03:11:05.504Z,-2.31
2019-02-05T03:12:05.301Z,-2.31
2019-02-05T03:13:05.801Z,-2.31
2019-02-05T03:14:05.680Z,-2.31
2019-02-05T03:15:05.871Z,-2.31
2019-02-05T03:16:05.317Z,-2.31
2019-02-05T03:17:05.384Z,-2.31
2019-02-05T03:18:06.063Z,-2.25
2019-02-05T03:19:05.619Z,-2.31
2019-02-05T03:20:05.699Z,-2.31
2019-02-05T03:21:05.220Z,-2.31
2019-02-05T03:22:05.691Z,-2.31
2019-02-05T03:23:05.763Z,-2.31
2019-02-05T03:24:06.001Z,-2.31
2019-02-05T03:25:05.134Z,-2.38
2019-02-05T03:26:05.950Z,-2.38
2019-02-05T03:27:16.888Z,-2.38
2019-02-05T03:28:05.850Z,-2.38
2019-02-05T03:29:05.873Z,-2.38
2019-02-05T03:30:05.449Z,-2.38
2019-02-05T03:31:05.441Z,-2.38
2019-02-05T03:32:05.784Z,-2.38
2019-02-05T03:33:05.958Z,-2.38
2019-02-05T03:34:05.934Z,-2.38
2019-02-05T03:35:06.756Z,-2.38
2019-02-05T03:36:05.468Z,-2.38
2019-02-05T03:37:05.369Z,-2.38
2019-02-05T03:38:05.535Z,-2.38
2019-02-05T03:39:05.543Z,-2.38
2019-02-05T03:40:05.233Z,-2.38
2019-02-05T03:41:05.387Z,-2.38
2019-02-05T03:42:05.450Z,-2.38
2019-02-05T03:43:05.059Z,-2.31
2019-02-05T03:44:05.610Z,-2.31
2019-02-05T03:45:05.694Z,-2.31
2019-02-05T03:46:05.949Z,-2.31
2019-02-05T03:47:06.014Z,-2.31
2019-02-05T03:48:05.528Z,-2.31
2019-02-05T03:49:05.613Z,-2.31
2019-02-05T03:50:05.232Z,-2.31
2019-02-05T03:51:05.636Z,-2.25
2019-02-05T03:52:05.202Z,-2.25
2019-02-05T03:53:05.317Z,-2.25
2019-02-05T03:54:05.375Z,-2.25
2019-02-05T03:55:05.858Z,-2.25
2019-02-05T03:56:05.837Z,-2.25
2019-02-05T03:57:05.332Z,-2.19
2019-02-05T03:58:05.447Z,-2.19
2019-02-05T03:59:05.942Z,-2.19
2019-02-05T04:00:05.375Z,-2.19
2019-02-05T04:01:05.563Z,-2.12
2019-02-05T04:02:05.720Z,-2.12
2019-02-05T04:03:05.304Z,-2.12
2019-02-05T04:04:05.461Z,-2.12
2019-02-05T04:05:05.386Z,-2.06
2019-02-05T04:06:05.853Z,-2.06
2019-02-05T04:07:05.538Z,-2.06
2019-02-05T04:08:05.131Z,-2.00
2019-02-05T04:09:05.953Z,-2.00
2019-02-05T04:10:05.938Z,-2.00
2019-02-05T04:11:05.788Z,-2.00
2019-02-05T04:12:05.235Z,-2.00
2019-02-05T04:13:05.477Z,-1.94
2019-02-05T04:14:05.528Z,-1.94
2019-02-05T04:15:06.141Z,-1.94
2019-02-05T04:16:05.463Z,-1.94
2019-02-05T04:17:05.697Z,-1.88
2019-02-05T04:18:05.310Z,-1.88
2019-02-05T04:19:05.304Z,-1.88
2019-02-05T04:20:05.281Z,-1.88
2019-02-05T04:21:06.027Z,-1.88
2019-02-05T04:22:05.057Z,-1.88
2019-02-05T04:23:05.216Z,-1.88
2019-02-05T04:24:05.754Z,-1.81
2019-02-05T04:25:05.527Z,-1.81
2019-02-05T04:26:05.137Z,-1.81
2019-02-05T04:27:05.379Z,-1.81
2019-02-05T04:28:05.134Z,-1.81
2019-02-05T04:29:05.699Z,-1.81
2019-02-05T04:30:05.220Z,-1.75
2019-02-05T04:31:05.324Z,-1.75
2019-02-05T04:32:05.354Z,-1.75
2019-02-05T04:33:05.847Z,-1.75
2019-02-05T04:34:05.538Z,-1.75
2019-02-05T04:35:05.995Z,-1.75
2019-02-05T04:36:05.300Z,-1.75
2019-02-05T04:37:05.388Z,-1.75
2019-02-05T04:38:05.382Z,-1.69
2019-02-05T04:39:05.572Z,-1.69
2019-02-05T04:40:06.037Z,-1.69
2019-02-05T04:41:06.013Z,-1.69
2019-02-05T04:42:05.272Z,-1.69
2019-02-05T04:43:05.782Z,-1.69
2019-02-05T04:44:05.860Z,-1.62
2019-02-05T04:45:05.835Z,-1.62
2019-02-05T04:46:05.147Z,-1.62
2019-02-05T04:47:05.203Z,-1.62
2019-02-05T04:48:05.306Z,-1.62
2019-02-05T04:49:05.930Z,-1.56
2019-02-05T04:50:05.152Z,-1.56
2019-02-05T04:51:05.467Z,-1.56
2019-02-05T04:52:05.710Z,-1.56
2019-02-05T04:53:05.939Z,-1.56
2019-02-05T04:54:05.547Z,-1.50
2019-02-05T04:55:05.543Z,-1.50
2019-02-05T04:56:05.956Z,-1.50
2019-02-05T04:57:05.543Z,-1.50
2019-02-05T04:58:06.007Z,-1.44
2019-02-05T04:59:05.556Z,-1.44
2019-02-05T05:00:05.364Z,-1.44
2019-02-05T05:01:05.962Z,-1.44
2019-02-05T05:02:05.947Z,-1.44
2019-02-05T05:03:05.323Z,-1.38
2019-02-05T05:04:05.784Z,-1.38
2019-02-05T05:05:05.784Z,-1.38
2019-02-05T05:06:05.359Z,-1.38
2019-02-05T05:07:05.544Z,-1.38
2019-02-05T05:08:05.553Z,-1.31
2019-02-05T05:09:05.724Z,-1.31
2019-02-05T05:10:05.220Z,-1.31
2019-02-05T05:11:05.229Z,-1.31
2019-02-05T05:12:05.465Z,-1.25
2019-02-05T05:13:05.464Z,-1.25
2019-02-05T05:14:05.846Z,-1.25
2019-02-05T05:15:05.471Z,-1.19
2019-02-05T05:16:05.241Z,-1.19
2019-02-05T05:17:05.305Z,-1.19
2019-02-05T05:18:05.690Z,-1.19
2019-02-05T05:19:05.809Z,-1.12
2019-02-05T05:20:05.945Z,-1.12
2019-02-05T05:21:05.145Z,-1.12
2019-02-05T05:22:05.211Z,-1.12
2019-02-05T05:23:05.787Z,-1.06
2019-02-05T05:24:06.109Z,-1.06
2019-02-05T05:25:06.462Z,-1.06
2019-02-05T05:26:06.033Z,-1.06
2019-02-05T05:27:05.864Z,-1.06
2019-02-05T05:28:09.861Z,-1.06
2019-02-05T05:29:05.930Z,-1.06
2019-02-05T05:30:05.202Z,-1.06
2019-02-05T05:31:06.424Z,-1.00
2019-02-05T05:32:05.853Z,-1.06
2019-02-05T05:33:06.104Z,-1.00
2019-02-05T05:34:05.453Z,-1.00
2019-02-05T05:35:05.447Z,-1.00
2019-02-05T05:36:05.637Z,-1.00
2019-02-05T05:37:06.110Z,-1.00
2019-02-05T05:38:05.130Z,-1.00
2019-02-05T05:39:05.229Z,-1.00
2019-02-05T05:40:05.788Z,-1.00
2019-02-05T05:41:05.423Z,-1.00
2019-02-05T05:42:05.382Z,-1.00
2019-02-05T05:43:05.397Z,-1.00
2019-02-05T05:44:05.365Z,-0.94
2019-02-05T05:45:05.057Z,-0.94
2019-02-05T05:46:05.727Z,-0.94
2019-02-05T05:47:05.953Z,-0.94
2019-02-05T05:48:05.367Z,-0.94
2019-02-05T05:49:06.039Z,-0.94
2019-02-05T05:50:05.947Z,-1.00
2019-02-05T05:51:05.468Z,-0.94
2019-02-05T05:52:06.039Z,-1.00
2019-02-05T05:53:06.538Z,-1.00
2019-02-05T05:54:05.800Z,-1.00
2019-02-05T05:55:06.032Z,-1.00
2019-02-05T05:56:05.601Z,-1.00
2019-02-05T05:57:05.711Z,-1.00
2019-02-05T05:58:05.669Z,-1.00
2019-02-05T05:59:05.770Z,-1.06
2019-02-05T06:00:05.310Z,-1.06
2019-02-05T06:01:05.933Z,-1.06
2019-02-05T06:02:05.234Z,-1.06
2019-02-05T06:03:05.300Z,-1.06
2019-02-05T06:04:06.031Z,-1.06
2019-02-05T06:05:06.025Z,-1.06
2019-02-05T06:06:05.627Z,-1.06
2019-02-05T06:07:05.868Z,-1.12
2019-02-05T06:08:06.002Z,-1.12
2019-02-05T06:09:05.567Z,-1.12
2019-02-05T06:10:07.076Z,-1.12
2019-02-05T06:11:05.877Z,-1.12
2019-02-05T06:12:06.489Z,-1.12
2019-02-05T06:13:05.600Z,-1.19
2019-02-05T06:14:05.771Z,-1.19
2019-02-05T06:15:05.866Z,-1.19
2019-02-05T06:16:05.927Z,-1.19
2019-02-05T06:17:05.639Z,-1.19
2019-02-05T06:18:05.630Z,-1.19
2019-02-05T06:19:05.642Z,-1.19
2019-02-05T06:20:05.708Z,-1.25
2019-02-05T06:21:05.684Z,-1.25
2019-02-05T06:22:05.789Z,-1.25
2019-02-05T06:23:05.074Z,-1.19
2019-02-05T06:24:05.621Z,-1.19
2019-02-05T06:25:05.721Z,-1.19
2019-02-05T06:26:05.937Z,-1.19
2019-02-05T06:27:05.143Z,-1.19
2019-02-05T06:28:05.533Z,-1.19
2019-02-05T06:29:05.806Z,-1.19
2019-02-05T06:30:05.770Z,-1.19
2019-02-05T06:31:05.799Z,-1.19
2019-02-05T06:32:05.712Z,-1.19
2019-02-05T06:33:06.021Z,-1.19
2019-02-05T06:34:05.769Z,-1.12
2019-02-05T06:35:05.859Z,-1.12
2019-02-05T06:36:05.518Z,-1.12
2019-02-05T06:37:05.243Z,-1.12
2019-02-05T06:38:05.314Z,-1.12
2019-02-05T06:39:05.301Z,-1.12
2019-02-05T06:40:05.462Z,-1.12
2019-02-05T06:41:05.622Z,-1.12
2019-02-05T06:42:05.704Z,-1.12
2019-02-05T06:43:05.985Z,-1.12
2019-02-05T06:44:05.447Z,-1.12
2019-02-05T06:45:05.835Z,-1.12
2019-02-05T06:46:06.012Z,-1.12
2019-02-05T06:47:05.150Z,-1.12
2019-02-05T06:48:05.146Z,-1.12
2019-02-05T06:49:06.029Z,-1.12
2019-02-05T06:50:05.693Z,-1.12
2019-02-05T06:51:05.146Z,-1.12
2019-02-05T06:52:05.525Z,-1.12
2019-02-05T06:53:05.857Z,-1.12
2019-02-05T06:54:05.372Z,-1.12
2019-02-05T06:55:06.039Z,-1.12
2019-02-05T06:56:05.034Z,-1.12
2019-02-05T06:57:05.301Z,-1.12
2019-02-05T06:58:05.683Z,-1.06
2019-02-05T06:59:05.868Z,-1.06
2019-02-05T07:00:05.849Z,-1.06
2019-02-05T07:01:06.022Z,-1.06
2019-02-05T07:02:05.079Z,-1.06
2019-02-05T07:03:05.212Z,-1.06
2019-02-05T07:04:06.028Z,-1.00
2019-02-05T07:05:06.020Z,-1.00
2019-02-05T07:06:05.550Z,-1.00
2019-02-05T07:07:05.871Z,-1.00
2019-02-05T07:08:05.332Z,-0.94
2019-02-05T07:09:05.300Z,-0.94
2019-02-05T07:10:05.546Z,-0.94
2019-02-05T07:11:05.474Z,-0.88
2019-02-05T07:12:05.606Z,-0.88
2019-02-05T07:13:05.886Z,-0.88
2019-02-05T07:14:05.880Z,-0.81
2019-02-05T07:15:05.152Z,-0.81
2019-02-05T07:16:05.724Z,-0.81
2019-02-05T07:17:06.026Z,-0.75
2019-02-05T07:18:05.254Z,-0.75
2019-02-05T07:19:05.307Z,-0.69
2019-02-05T07:20:05.465Z,-0.69
2019-02-05T07:21:05.570Z,-0.69
2019-02-05T07:22:05.993Z,-0.69
2019-02-05T07:23:06.047Z,-0.69
2019-02-05T07:24:05.140Z,-0.69
2019-02-05T07:25:05.226Z,-0.62
2019-02-05T07:26:05.462Z,-0.62
2019-02-05T07:27:05.864Z,-0.62
2019-02-05T07:28:05.985Z,-0.62
2019-02-05T07:29:05.157Z,-0.62
2019-02-05T07:30:05.725Z,-0.62
2019-02-05T07:31:05.792Z,-0.56
2019-02-05T07:32:06.050Z,-0.56
2019-02-05T07:33:05.231Z,-0.56
2019-02-05T07:34:05.401Z,-0.56
2019-02-05T07:35:05.394Z,-0.56
2019-02-05T07:36:05.962Z,-0.50
2019-02-05T07:37:05.071Z,-0.50
2019-02-05T07:38:05.430Z,-0.50
2019-02-05T07:39:05.542Z,-0.50
2019-02-05T07:40:05.889Z,-0.50
2019-02-05T07:41:05.476Z,-0.44
2019-02-05T07:42:05.470Z,-0.44
2019-02-05T07:43:05.875Z,-0.44
2019-02-05T07:44:05.889Z,-0.44
2019-02-05T07:45:05.156Z,-0.38
2019-02-05T07:46:05.252Z,-0.38
2019-02-05T07:47:05.303Z,-0.31
2019-02-05T07:48:05.703Z,-0.31
2019-02-05T07:49:05.230Z,-0.31
2019-02-05T07:50:05.230Z,-0.25
2019-02-05T07:51:05.705Z,-0.25
2019-02-05T07:52:05.168Z,-0.25
2019-02-05T07:53:05.155Z,-0.19
2019-02-05T07:54:05.223Z,-0.19
2019-02-05T07:55:05.070Z,-0.19
2019-02-05T07:56:05.485Z,-0.12
2019-02-05T07:57:05.496Z,-0.12
2019-02-05T07:58:05.631Z,-0.12
2019-02-05T07:59:10.013Z,-0.06
2019-02-05T08:00:06.034Z,-0.06
2019-02-05T08:01:05.290Z,-0.06
2019-02-05T08:02:05.935Z,0.00
2019-02-05T08:03:05.636Z,-0.06
2019-02-05T08:04:05.797Z,0.00
2019-02-05T08:05:06.034Z,0.00
2019-02-05T08:06:05.713Z,0.06
2019-02-05T08:07:07.567Z,0.06
2019-02-05T08:08:05.329Z,0.06
2019-02-05T08:09:06.037Z,0.06
2019-02-05T08:10:05.154Z,0.12
2019-02-05T08:11:05.159Z,0.12
2019-02-05T08:12:05.497Z,0.19
2019-02-05T08:13:05.625Z,0.19
2019-02-05T08:14:06.134Z,0.19
2019-02-05T08:15:05.846Z,0.25
2019-02-05T08:16:05.381Z,0.25
2019-02-05T08:17:06.020Z,0.31
2019-02-05T08:18:05.472Z,0.31
2019-02-05T08:19:05.626Z,0.38
2019-02-05T08:20:05.362Z,0.38
2019-02-05T08:21:05.235Z,0.44
2019-02-05T08:22:05.292Z,0.44
2019-02-05T08:23:06.199Z,0.44
2019-02-05T08:24:05.459Z,0.44
2019-02-05T08:25:05.642Z,0.50
2019-02-05T08:26:05.708Z,0.50
2019-02-05T08:27:05.165Z,0.50
2019-02-05T08:28:05.368Z,0.50
2019-02-05T08:29:05.469Z,0.50
2019-02-05T08:30:06.040Z,0.50
2019-02-05T08:31:06.040Z,0.56
2019-02-05T08:32:05.238Z,0.56
2019-02-05T08:33:05.244Z,0.56
2019-02-05T08:34:05.298Z,0.62
2019-02-05T08:35:05.965Z,0.69
2019-02-05T08:36:05.074Z,0.69
2019-02-05T08:37:05.547Z,0.75
2019-02-05T08:38:05.487Z,0.75
2019-02-05T08:39:05.866Z,0.75
2019-02-05T08:40:05.144Z,0.81
2019-02-05T08:41:05.472Z,0.88
2019-02-05T08:42:05.944Z,0.88
2019-02-05T08:43:05.168Z,0.94
2019-02-05T08:44:05.305Z,0.94
2019-02-05T08:45:06.118Z,1.00
2019-02-05T08:46:05.174Z,1.00
2019-02-05T08:47:05.482Z,1.00
2019-02-05T08:48:05.470Z,1.06
2019-02-05T08:49:05.548Z,1.06
2019-02-05T08:50:05.161Z,1.06
2019-02-05T08:51:05.241Z,1.06
2019-02-05T08:52:05.631Z,1.12
2019-02-05T08:53:05.871Z,1.12
2019-02-05T08:54:05.949Z,1.19
2019-02-05T08:55:05.231Z,1.19
2019-02-05T08:56:05.730Z,1.19
2019-02-05T08:57:05.254Z,1.25
2019-02-05T08:58:05.480Z,1.25
2019-02-05T08:59:05.879Z,1.31
2019-02-05T09:00:05.462Z,1.31
2019-02-05T09:01:05.651Z,1.31
2019-02-05T09:02:05.361Z,1.38
2019-02-05T09:03:05.477Z,1.38
2019-02-05T09:04:06.844Z,1.44
2019-02-05T09:05:05.234Z,1.50
2019-02-05T09:06:05.775Z,1.50
2019-02-05T09:07:05.321Z,1.56
2019-02-05T09:08:05.875Z,1.56
2019-02-05T09:09:05.970Z,1.56
2019-02-05T09:10:05.567Z,1.62
2019-02-05T09:11:05.649Z,1.62
2019-02-05T09:12:05.871Z,1.69
2019-02-05T09:13:06.130Z,1.69
2019-02-05T09:14:10.657Z,1.75
2019-02-05T09:15:05.998Z,1.81
2019-02-05T09:16:05.070Z,1.81
2019-02-05T09:17:05.707Z,1.88
2019-02-05T09:18:05.788Z,1.88
2019-02-05T09:19:05.238Z,1.94
2019-02-05T09:20:05.316Z,1.94
2019-02-05T09:21:06.132Z,2.00
2019-02-05T09:22:05.799Z,2.00
2019-02-05T09:23:05.871Z,2.06
2019-02-05T09:24:05.540Z,2.06
2019-02-05T09:25:05.784Z,2.12
2019-02-05T09:26:05.374Z,2.12
2019-02-05T09:27:05.391Z,2.19
2019-02-05T09:28:05.555Z,2.19
2019-02-05T09:29:05.083Z,2.19
2019-02-05T09:30:05.806Z,2.25
2019-02-05T09:31:05.063Z,2.25
2019-02-05T09:32:05.142Z,2.31
2019-02-05T09:33:05.465Z,2.31
2019-02-05T09:34:05.626Z,2.38
2019-02-05T09:35:05.956Z,2.38
2019-02-05T09:36:05.168Z,2.38
2019-02-05T09:37:05.233Z,2.44
2019-02-05T09:38:05.390Z,2.50
2019-02-05T09:39:05.634Z,2.50
2019-02-05T09:40:06.444Z,2.56
2019-02-05T09:41:05.532Z,2.56
2019-02-05T09:42:05.623Z,2.62
2019-02-05T09:43:05.776Z,2.62
2019-02-05T09:44:05.558Z,2.62
2019-02-05T09:45:06.033Z,2.69
2019-02-05T09:46:06.030Z,2.69
2019-02-05T09:47:05.385Z,2.75
2019-02-05T09:48:06.999Z,2.75
2019-02-05T09:49:05.933Z,2.81
2019-02-05T09:50:05.890Z,2.81
2019-02-05T09:51:05.383Z,2.88
2019-02-05T09:52:05.465Z,2.88
2019-02-05T09:53:06.110Z,2.94
2019-02-05T09:54:05.219Z,2.94
2019-02-05T09:55:05.550Z,3.00
2019-02-05T09:56:05.990Z,3.00
2019-02-05T09:57:05.381Z,3.00
2019-02-05T09:58:05.872Z,3.06
2019-02-05T09:59:05.459Z,3.06
2019-02-05T10:00:05.706Z,3.12
2019-02-05T10:01:05.864Z,3.12
2019-02-05T10:02:06.027Z,3.19
2019-02-05T10:03:05.550Z,3.19
2019-02-05T10:04:05.140Z,3.19
2019-02-05T10:05:05.288Z,3.25
2019-02-05T10:06:05.139Z,3.25
2019-02-05T10:07:05.637Z,3.25
2019-02-05T10:08:05.242Z,3.31
2019-02-05T10:09:05.230Z,3.31
2019-02-05T10:10:05.677Z,3.31
2019-02-05T10:11:05.890Z,3.38
2019-02-05T10:12:06.852Z,3.38
2019-02-05T10:13:05.463Z,3.38
2019-02-05T10:14:05.707Z,3.44
2019-02-05T10:15:05.958Z,3.44
2019-02-05T10:16:06.215Z,3.44
2019-02-05T10:17:05.155Z,3.50
2019-02-05T10:18:05.459Z,3.50
2019-02-05T10:19:05.950Z,3.50
2019-02-05T10:20:05.309Z,3.50
2019-02-05T10:21:05.378Z,3.56
2019-02-05T10:22:05.549Z,3.56
2019-02-05T10:23:05.634Z,3.56
2019-02-05T10:24:05.220Z,3.62
2019-02-05T10:25:05.952Z,3.62
2019-02-05T10:26:06.123Z,3.62
2019-02-05T10:27:05.239Z,3.69
2019-02-05T10:28:05.472Z,3.69
2019-02-05T10:29:05.638Z,3.75
2019-02-05T10:30:05.151Z,3.75
2019-02-05T10:31:05.306Z,3.75
2019-02-05T10:32:05.541Z,3.81
2019-02-05T10:33:05.641Z,3.81
2019-02-05T10:34:05.794Z,3.81
2019-02-05T10:35:05.314Z,3.81
2019-02-05T10:36:05.386Z,3.88
2019-02-05T10:37:05.488Z,3.88
2019-02-05T10:38:05.788Z,3.94
2019-02-05T10:39:05.472Z,3.94
2019-02-05T10:40:05.723Z,3.94
2019-02-05T10:41:05.959Z,4.00
2019-02-05T10:42:06.026Z,4.00
2019-02-05T10:43:05.878Z,4.00
2019-02-05T10:44:06.024Z,4.06
2019-02-05T10:45:05.469Z,4.06
2019-02-05T10:46:05.840Z,4.06
2019-02-05T10:47:05.147Z,4.12
2019-02-05T10:48:05.217Z,4.12
2019-02-05T10:49:05.472Z,4.12
2019-02-05T10:50:05.886Z,4.19
2019-02-05T10:51:05.882Z,4.19
2019-02-05T10:52:05.309Z,4.19
2019-02-05T10:53:05.720Z,4.25
2019-02-05T10:54:05.138Z,4.25
2019-02-05T10:55:05.560Z,4.25
2019-02-05T10:56:05.775Z,4.25
2019-02-05T10:57:05.060Z,4.31
2019-02-05T10:58:05.379Z,4.31
2019-02-05T10:59:06.031Z,4.31
2019-02-05T11:00:08.666Z,4.31
2019-02-05T11:01:05.879Z,4.31
2019-02-05T11:02:05.080Z,4.38
2019-02-05T11:03:05.378Z,4.38
2019-02-05T11:04:05.851Z,4.38
2019-02-05T11:05:06.428Z,4.44
2019-02-05T11:06:05.081Z,4.38
2019-02-05T11:07:05.799Z,4.44
2019-02-05T11:08:05.882Z,4.44
2019-02-05T11:09:05.213Z,4.44
2019-02-05T11:10:05.626Z,4.44
2019-02-05T11:11:05.777Z,4.44
2019-02-05T11:12:05.482Z,4.50
2019-02-05T11:13:05.487Z,4.50
2019-02-05T11:14:05.705Z,4.50
2019-02-05T11:15:05.779Z,4.50
2019-02-05T11:16:05.898Z,4.50
2019-02-05T11:17:05.463Z,4.50
2019-02-05T11:18:05.224Z,4.56
2019-02-05T11:19:05.395Z,4.56
2019-02-05T11:20:05.552Z,4.56
2019-02-05T11:21:06.045Z,4.56
2019-02-05T11:22:05.189Z,4.62
2019-02-05T11:23:05.385Z,4.62
2019-02-05T11:24:06.045Z,4.62
2019-02-05T11:25:05.483Z,4.62
2019-02-05T11:26:05.451Z,4.62
2019-02-05T11:27:05.798Z,4.69
2019-02-05T11:28:05.073Z,4.69
2019-02-05T11:29:05.784Z,4.69
2019-02-05T11:30:05.376Z,4.69
2019-02-05T11:31:05.802Z,4.69
2019-02-05T11:32:05.382Z,4.69
2019-02-05T11:33:05.771Z,4.69
2019-02-05T11:34:05.187Z,4.75
2019-02-05T11:35:05.541Z,4.75
2019-02-05T11:36:05.700Z,4.75
2019-02-05T11:37:05.469Z,4.75
2019-02-05T11:38:05.589Z,4.75
2019-02-05T11:39:05.312Z,4.75
2019-02-05T11:40:05.317Z,4.75
2019-02-05T11:41:05.941Z,4.81
2019-02-05T11:42:05.153Z,4.81
2019-02-05T11:43:05.561Z,4.81
2019-02-05T11:44:05.270Z,4.81
2019-02-05T11:45:05.255Z,4.81
2019-02-05T11:46:05.386Z,4.81
2019-02-05T11:47:05.543Z,4.81
2019-02-05T11:48:05.798Z,4.88
2019-02-05T11:49:05.555Z,4.88
2019-02-05T11:50:05.634Z,4.88
2019-02-05T11:51:05.714Z,4.94
2019-02-05T11:52:05.809Z,4.94
2019-02-05T11:53:05.385Z,4.94
2019-02-05T11:54:05.546Z,4.94
2019-02-05T11:55:06.026Z,5.00
2019-02-05T11:56:05.695Z,5.00
2019-02-05T11:57:05.856Z,5.00
2019-02-05T11:58:05.378Z,5.00
2019-02-05T11:59:05.784Z,5.06
2019-02-05T12:00:05.380Z,5.06
2019-02-05T12:01:05.594Z,5.06
2019-02-05T12:02:05.783Z,5.12
2019-02-05T12:03:05.963Z,5.12
2019-02-05T12:04:05.692Z,5.12
2019-02-05T12:05:05.142Z,5.12
2019-02-05T12:06:05.247Z,5.12
2019-02-05T12:07:05.322Z,5.19
2019-02-05T12:08:05.977Z,5.19
2019-02-05T12:09:05.313Z,5.19
2019-02-05T12:10:05.948Z,5.19
2019-02-05T12:11:05.633Z,5.19
2019-02-05T12:12:05.872Z,5.25
2019-02-05T12:13:05.559Z,5.25
2019-02-05T12:14:05.407Z,5.25
2019-02-05T12:15:06.039Z,5.25
2019-02-05T12:16:06.039Z,5.25
2019-02-05T12:17:05.142Z,5.31
2019-02-05T12:18:05.855Z,5.31
2019-02-05T12:19:05.556Z,5.31
2019-02-05T12:20:05.474Z,5.31
2019-02-05T12:21:05.575Z,5.31
2019-02-05T12:22:05.376Z,5.31
2019-02-05T12:23:05.564Z,5.31
2019-02-05T12:24:06.049Z,5.38
2019-02-05T12:25:05.390Z,5.38
2019-02-05T12:26:05.316Z,5.38
2019-02-05T12:27:05.468Z,5.38
2019-02-05T12:28:05.061Z,5.38
2019-02-05T12:29:05.229Z,5.38
2019-02-05T12:30:05.860Z,5.38
2019-02-05T12:31:05.800Z,5.44
2019-02-05T12:32:05.301Z,5.44
2019-02-05T12:33:05.152Z,5.44
2019-02-05T12:34:05.230Z,5.44
2019-02-05T12:35:05.463Z,5.44
2019-02-05T12:36:05.946Z,5.44
2019-02-05T12:37:05.568Z,5.44
2019-02-05T12:38:06.615Z,5.44
2019-02-05T12:39:05.976Z,5.44
2019-02-05T12:40:05.408Z,5.44
2019-02-05T12:41:05.714Z,5.44
2019-02-05T12:42:05.070Z,5.44
2019-02-05T12:43:05.146Z,5.44
2019-02-05T12:44:05.723Z,5.44
2019-02-05T12:45:05.634Z,5.44
2019-02-05T12:46:05.800Z,5.50
2019-02-05T12:47:05.786Z,5.50
2019-02-05T12:48:05.560Z,5.50
2019-02-05T12:49:05.167Z,5.50
2019-02-05T12:50:05.558Z,5.50
2019-02-05T12:51:05.549Z,5.50
2019-02-05T12:52:05.707Z,5.50
2019-02-05T12:53:05.784Z,5.50
2019-02-05T12:54:06.064Z,5.50
2019-02-05T12:55:12.905Z,5.56
2019-02-05T12:56:05.549Z,5.56
2019-02-05T12:57:06.021Z,5.56
2019-02-05T12:58:05.540Z,5.56
2019-02-05T12:59:05.941Z,5.62
2019-02-05T13:00:05.319Z,5.62
2019-02-05T13:01:05.308Z,5.62
2019-02-05T13:02:05.977Z,5.62